Карточка аэропорта UATG

Внимание!
Информация на этой странице в стадии наполнения.
Если вы не увидели какой-то информации, или заметили неточность - пожалуйста сообщите нам!
Спасибо!
Команда RU-STAFF
Название аэропортаАтырау
Название аэропорта (англ.)Atyrau
Превышение-72 ft. (-21.9 m.)
Координаты47°7.332', 51°49.764'
Высота перехода1570
Эшелон переходаFL40
Коды ответчика3450-3457, 3560-3567
Зона ОрВДАктобе РПИ (UATT)
Данные METARUATG 241400Z 13004MPS 0900 R14/0900N HZ FEW004 BKN016 25/03 Q1005 R14/CLRD70 NOSIG RMK QBB130 QFE756/1008
Проноз погоды (TAF)UATG 241107Z 2412/2512 13008MPS 3100 BLDU BKN015CB TX20/2511Z TN12/2502Z TEMPO 2412/2418 0600 HZ SCT005 BECMG 2418/2419 18008MPS FM242000 30008MPS 6000 BKN020CB TEMPO 2420/2424 -SHRA
NOTAMshow/hide NOTAM
AWOS   TABLE

Информация о ВПП

ВПП Длина ВПП (м.) Покрытие Курс ВПП Частота ILS
143000Асфальтобетон149109.9
323000Асфальтобетон329108.3

Диспетчерские позиции

Позывной Наименование органа УВД Частота
UATG_APPАтырау Подход123.7
UATG_TWRАтырау Вышка118.1



Спутниковое изображение